Timmins/Victor M. Power
CYTS : now visible

Airfield :











YOU CAN JOIN US ON...

 
LOGIN :

Register | Disclaimer

   EN    FR    IT 

 









Legend :    VFR   Marginal VFR   IFR   Intensive IFR   Very Intensive IFR
Visi :
Ceiling :
>= 8 km
>= 3000ft
5 to 8 km
1000 to 3000 ft
1500m to 5 km
500 to 1000 ft
800 to 1500m
200 to 500 ft
< 800m
< 200 ft
Symbols :   Thunderstorms  Fog  Heavy snow  Heavy precipitations  Wind > 20 kt







- Airport Elevation : 967 ft
- IATA code : YTS


CYTS - Timmins/Victor M. Power

CURRENT METAR :
  • 210400Z 03002KT 15SM BCFG FEW040 SCT050 11/11 A3017 RMK SC2SC2 SLP223

EXPIRED METARs :
  • 210300Z 03003KT 15SM SCT040 12/12 A3018 RMK SC3 SLP227
  • 210200Z 05002KT 15SM FEW050 12/12 A3017 RMK SC2 SLP223

TAF TAF CYTS
Valid from the 21 at 02:00 until the 21 at 14:00 UTC


210138Z 2102/2114 VRB03KT P6SM SCT020
TEMPO 2102/2113 BKN020
PROB40 2106/2113 1SM BR BKN004
FM211300 VRB03KT P6SM FEW030 RMK NXT FCST BY 210800Z
No reported NOTAMs for that airfield.



MET'MAP, your aeronautical weather chart ! - Copyright ORBIFLY December 2007 - Disclaimer

ORBIFLY MET'MAP TEAM :

Programming & Development : Alexandra Zaïnal
Concept & Development : Baudouin d'Aumeries
Co-Development & Prog : Marc-Olivier Méhu
Technical & hardware support : Manuel Goepfert

Contact : metmap@orbifly.com




SOURCES & CREDITS :

   NOAA       Earth
Advisory